sensor_id;sensor_type;location;lat;lon;timestamp;pressure;altitude;pressure_sealevel;temperature;humidity
39209;BME280;24929;51.982;4.664;2023-01-28T00:01:06;78872.22;;;-143.36;nan
39209;BME280;24929;51.982;4.664;2023-01-28T00:03:31;78918.41;;;-143.36;nan
39209;BME280;24929;51.982;4.664;2023-01-28T00:06:04;78840.09;;;-143.36;nan
39209;BME280;24929;51.982;4.664;2023-01-28T00:08:31;78878.25;;;-143.36;nan
39209;BME280;24929;51.982;4.664;2023-01-28T00:10:58;78916.41;;;-143.36;nan
39209;BME280;24929;51.982;4.664;2023-01-28T00:13:25;78946.50;;;-143.36;nan
39209;BME280;24929;51.982;4.664;2023-01-28T00:16:02;78896.31;;;-143.36;nan
39209;BME280;24929;51.982;4.664;2023-01-28T00:18:29;78984.66;;;-143.36;nan
39209;BME280;24929;51.982;4.664;2023-01-28T00:23:26;78872.22;;;-143.36;nan
39209;BME280;24929;51.982;4.664;2023-01-28T00:25:52;78924.44;;;-143.36;nan
39209;BME280;24929;51.982;4.664;2023-01-28T00:28:19;78914.38;;;-143.36;nan
39209;BME280;24929;51.982;4.664;2023-01-28T00:30:45;78862.19;;;-143.36;nan
39209;BME280;24929;51.982;4.664;2023-01-28T00:33:10;78846.13;;;-143.36;nan
39209;BME280;24929;51.982;4.664;2023-01-28T00:35:36;78874.22;;;-143.36;nan
39209;BME280;24929;51.982;4.664;2023-01-28T00:38:01;78888.28;;;-143.36;nan
39209;BME280;24929;51.982;4.664;2023-01-28T00:40:28;78852.16;;;-143.36;nan
39209;BME280;24929;51.982;4.664;2023-01-28T00:42:54;78836.06;;;-143.36;nan
39209;BME280;24929;51.982;4.664;2023-01-28T00:45:19;78838.09;;;-143.36;nan
39209;BME280;24929;51.982;4.664;2023-01-28T00:47:44;78886.28;;;-143.36;nan
39209;BME280;24929;51.982;4.664;2023-01-28T00:50:10;78902.34;;;-143.36;nan
39209;BME280;24929;51.982;4.664;2023-01-28T00:52:35;78882.25;;;-143.36;nan
39209;BME280;24929;51.982;4.664;2023-01-28T00:55:01;78912.38;;;-143.36;nan
39209;BME280;24929;51.982;4.664;2023-01-28T00:57:26;78908.38;;;-143.36;nan
39209;BME280;24929;51.982;4.664;2023-01-28T00:59:52;78908.38;;;-143.36;nan
39209;BME280;24929;51.982;4.664;2023-01-28T01:02:17;78920.41;;;-143.36;nan
39209;BME280;24929;51.982;4.664;2023-01-28T01:04:43;78920.41;;;-143.36;nan
39209;BME280;24929;51.982;4.664;2023-01-28T01:07:22;78930.44;;;-143.36;nan
39209;BME280;24929;51.982;4.664;2023-01-28T01:09:59;78986.69;;;-143.36;nan
39209;BME280;24929;51.982;4.664;2023-01-28T01:12:25;78956.56;;;-143.36;nan
39209;BME280;24929;51.982;4.664;2023-01-28T01:14:50;78982.66;;;-143.36;nan
39209;BME280;24929;51.982;4.664;2023-01-28T01:17:16;78926.44;;;-143.36;nan
39209;BME280;24929;51.982;4.664;2023-01-28T01:19:41;78944.50;;;-143.36;nan
39209;BME280;24929;51.982;4.664;2023-01-28T01:22:07;78986.69;;;-143.36;nan
39209;BME280;24929;51.982;4.664;2023-01-28T01:24:32;78980.66;;;-143.36;nan
39209;BME280;24929;51.982;4.664;2023-01-28T01:26:58;78928.44;;;-143.36;nan
39209;BME280;24929;51.982;4.664;2023-01-28T01:29:24;78904.34;;;-143.36;nan
39209;BME280;24929;51.982;4.664;2023-01-28T01:31:49;78928.44;;;-143.36;nan
39209;BME280;24929;51.982;4.664;2023-01-28T01:34:15;78964.59;;;-143.36;nan
39209;BME280;24929;51.982;4.664;2023-01-28T01:36:40;79004.75;;;-143.36;nan
39209;BME280;24929;51.982;4.664;2023-01-28T01:39:10;78952.53;;;-143.36;nan
39209;BME280;24929;51.982;4.664;2023-01-28T01:41:36;78940.50;;;-143.36;nan
39209;BME280;24929;51.982;4.664;2023-01-28T01:44:04;79046.91;;;-143.36;nan
39209;BME280;24929;51.982;4.664;2023-01-28T01:46:44;78870.22;;;-143.36;nan
39209;BME280;24929;51.982;4.664;2023-01-28T01:49:21;78902.34;;;-143.36;nan
39209;BME280;24929;51.982;4.664;2023-01-28T01:51:51;78880.25;;;-143.36;nan
39209;BME280;24929;51.982;4.664;2023-01-28T01:54:19;78956.56;;;-143.36;nan
39209;BME280;24929;51.982;4.664;2023-01-28T01:56:48;78954.53;;;-143.36;nan
39209;BME280;24929;51.982;4.664;2023-01-28T01:59:21;78884.28;;;-143.36;nan
39209;BME280;24929;51.982;4.664;2023-01-28T02:01:49;78992.69;;;-143.36;nan
39209;BME280;24929;51.982;4.664;2023-01-28T02:04:24;78860.19;;;-143.36;nan
39209;BME280;24929;51.982;4.664;2023-01-28T02:06:51;78880.25;;;-143.36;nan
39209;BME280;24929;51.982;4.664;2023-01-28T02:09:27;78906.34;;;-143.36;nan
39209;BME280;24929;51.982;4.664;2023-01-28T02:12:15;78866.19;;;-143.36;nan
39209;BME280;24929;51.982;4.664;2023-01-28T02:15:18;78820.03;;;-143.36;nan
39209;BME280;24929;51.982;4.664;2023-01-28T02:17:45;78894.31;;;-143.36;nan
39209;BME280;24929;51.982;4.664;2023-01-28T02:20:13;78932.47;;;-143.36;nan
39209;BME280;24929;51.982;4.664;2023-01-28T02:23:20;79030.84;;;-143.36;nan
39209;BME280;24929;51.982;4.664;2023-01-28T02:31:26;78918.41;;;-143.36;nan
39209;BME280;24929;51.982;4.664;2023-01-28T02:36:46;78882.25;;;-143.36;nan
39209;BME280;24929;51.982;4.664;2023-01-28T02:39:21;78822.03;;;-143.36;nan
39209;BME280;24929;51.982;4.664;2023-01-28T02:42:01;78828.03;;;-143.36;nan
39209;BME280;24929;51.982;4.664;2023-01-28T02:44:28;78912.38;;;-143.36;nan
39209;BME280;24929;51.982;4.664;2023-01-28T02:46:53;78948.53;;;-143.36;nan
39209;BME280;24929;51.982;4.664;2023-01-28T02:49:44;78824.03;;;-143.36;nan
39209;BME280;24929;51.982;4.664;2023-01-28T02:55:14;78872.22;;;-143.36;nan
39209;BME280;24929;51.982;4.664;2023-01-28T03:00:20;78918.41;;;-143.36;nan
39209;BME280;24929;51.982;4.664;2023-01-28T03:02:58;78876.25;;;-143.36;nan
39209;BME280;24929;51.982;4.664;2023-01-28T03:05:34;78950.53;;;-143.36;nan
39209;BME280;24929;51.982;4.664;2023-01-28T03:08:03;78932.47;;;-143.36;nan
39209;BME280;24929;51.982;4.664;2023-01-28T03:10:51;78888.28;;;-143.36;nan
39209;BME280;24929;51.982;4.664;2023-01-28T03:13:37;78878.25;;;-143.36;nan
39209;BME280;24929;51.982;4.664;2023-01-28T03:16:21;78982.66;;;-143.36;nan
39209;BME280;24929;51.982;4.664;2023-01-28T03:19:06;78980.66;;;-143.36;nan
39209;BME280;24929;51.982;4.664;2023-01-28T03:21:51;78984.66;;;-143.36;nan
39209;BME280;24929;51.982;4.664;2023-01-28T03:24:45;78932.47;;;-143.36;nan
39209;BME280;24929;51.982;4.664;2023-01-28T03:30:44;78974.63;;;-143.36;nan
39209;BME280;24929;51.982;4.664;2023-01-28T03:33:31;78984.66;;;-143.36;nan
39209;BME280;24929;51.982;4.664;2023-01-28T03:36:17;79002.75;;;-143.36;nan
39209;BME280;24929;51.982;4.664;2023-01-28T03:39:01;79002.75;;;-143.36;nan
39209;BME280;24929;51.982;4.664;2023-01-28T03:41:27;79008.75;;;-143.36;nan
39209;BME280;24929;51.982;4.664;2023-01-28T03:43:52;78978.66;;;-143.36;nan
39209;BME280;24929;51.982;4.664;2023-01-28T03:46:18;78938.47;;;-143.36;nan
39209;BME280;24929;51.982;4.664;2023-01-28T03:48:44;78954.53;;;-143.36;nan
39209;BME280;24929;51.982;4.664;2023-01-28T03:51:10;78990.69;;;-143.36;nan
39209;BME280;24929;51.982;4.664;2023-01-28T03:53:37;78974.63;;;-143.36;nan
39209;BME280;24929;51.982;4.664;2023-01-28T03:56:03;78954.53;;;-143.36;nan
39209;BME280;24929;51.982;4.664;2023-01-28T03:58:29;78942.50;;;-143.36;nan
39209;BME280;24929;51.982;4.664;2023-01-28T04:01:10;78994.72;;;-143.36;nan
39209;BME280;24929;51.982;4.664;2023-01-28T04:03:35;79109.16;;;-143.36;nan
39209;BME280;24929;51.982;4.664;2023-01-28T04:06:03;79008.75;;;-143.36;nan
39209;BME280;24929;51.982;4.664;2023-01-28T04:08:29;79042.91;;;-143.36;nan
39209;BME280;24929;51.982;4.664;2023-01-28T04:10:55;79052.94;;;-143.36;nan
39209;BME280;24929;51.982;4.664;2023-01-28T04:13:20;79026.84;;;-143.36;nan
39209;BME280;24929;51.982;4.664;2023-01-28T04:15:46;79030.84;;;-143.36;nan
39209;BME280;24929;51.982;4.664;2023-01-28T04:18:11;79069.00;;;-143.36;nan
39209;BME280;24929;51.982;4.664;2023-01-28T04:20:37;79006.75;;;-143.36;nan
39209;BME280;24929;51.982;4.664;2023-01-28T04:23:03;78984.66;;;-143.36;nan
39209;BME280;24929;51.982;4.664;2023-01-28T04:25:30;78984.66;;;-143.36;nan
39209;BME280;24929;51.982;4.664;2023-01-28T04:27:55;78992.69;;;-143.36;nan
39209;BME280;24929;51.982;4.664;2023-01-28T04:30:22;79018.81;;;-143.36;nan
39209;BME280;24929;51.982;4.664;2023-01-28T04:32:47;79038.88;;;-143.36;nan
39209;BME280;24929;51.982;4.664;2023-01-28T04:35:16;79008.75;;;-143.36;nan
39209;BME280;24929;51.982;4.664;2023-01-28T04:37:41;79012.78;;;-143.36;nan
39209;BME280;24929;51.982;4.664;2023-01-28T04:40:07;79002.75;;;-143.36;nan
39209;BME280;24929;51.982;4.664;2023-01-28T04:42:33;79020.81;;;-143.36;nan
39209;BME280;24929;51.982;4.664;2023-01-28T04:44:58;79016.78;;;-143.36;nan
39209;BME280;24929;51.982;4.664;2023-01-28T04:47:24;78992.69;;;-143.36;nan
39209;BME280;24929;51.982;4.664;2023-01-28T04:49:49;79008.75;;;-143.36;nan
39209;BME280;24929;51.982;4.664;2023-01-28T04:52:14;78990.69;;;-143.36;nan
39209;BME280;24929;51.982;4.664;2023-01-28T04:54:40;78950.53;;;-143.36;nan
39209;BME280;24929;51.982;4.664;2023-01-28T04:57:05;78970.59;;;-143.36;nan
39209;BME280;24929;51.982;4.664;2023-01-28T04:59:30;78974.63;;;-143.36;nan
39209;BME280;24929;51.982;4.664;2023-01-28T05:01:55;78980.66;;;-143.36;nan
39209;BME280;24929;51.982;4.664;2023-01-28T05:04:21;78984.66;;;-143.36;nan
39209;BME280;24929;51.982;4.664;2023-01-28T05:06:46;78988.69;;;-143.36;nan
39209;BME280;24929;51.982;4.664;2023-01-28T05:09:11;78994.72;;;-143.36;nan
39209;BME280;24929;51.982;4.664;2023-01-28T05:11:37;78990.69;;;-143.36;nan
39209;BME280;24929;51.982;4.664;2023-01-28T05:14:02;79125.22;;;-143.36;nan
39209;BME280;24929;51.982;4.664;2023-01-28T05:16:28;79067.00;;;-143.36;nan
39209;BME280;24929;51.982;4.664;2023-01-28T05:18:53;79366.19;;;-143.36;nan
39209;BME280;24929;51.982;4.664;2023-01-28T05:21:18;79313.97;;;-143.36;nan
39209;BME280;24929;51.982;4.664;2023-01-28T05:23:44;79103.13;;;-143.36;nan
39209;BME280;24929;51.982;4.664;2023-01-28T05:26:09;79036.88;;;-143.36;nan
39209;BME280;24929;51.982;4.664;2023-01-28T05:28:35;79036.88;;;-143.36;nan
39209;BME280;24929;51.982;4.664;2023-01-28T05:31:06;78958.56;;;-143.36;nan
39209;BME280;24929;51.982;4.664;2023-01-28T05:33:32;79014.78;;;-143.36;nan
39209;BME280;24929;51.982;4.664;2023-01-28T05:35:58;79012.78;;;-143.36;nan
39209;BME280;24929;51.982;4.664;2023-01-28T05:38:23;79034.88;;;-143.36;nan
39209;BME280;24929;51.982;4.664;2023-01-28T05:40:49;79036.88;;;-143.36;nan
39209;BME280;24929;51.982;4.664;2023-01-28T05:43:14;79024.81;;;-143.36;nan
39209;BME280;24929;51.982;4.664;2023-01-28T05:45:40;79064.97;;;-143.36;nan
39209;BME280;24929;51.982;4.664;2023-01-28T05:48:05;79022.81;;;-143.36;nan
39209;BME280;24929;51.982;4.664;2023-01-28T05:50:31;79036.88;;;-143.36;nan
39209;BME280;24929;51.982;4.664;2023-01-28T05:52:56;79002.75;;;-143.36;nan
39209;BME280;24929;51.982;4.664;2023-01-28T05:55:22;79024.81;;;-143.36;nan
39209;BME280;24929;51.982;4.664;2023-01-28T05:57:47;78996.72;;;-143.36;nan
39209;BME280;24929;51.982;4.664;2023-01-28T06:00:13;79014.78;;;-143.36;nan
39209;BME280;24929;51.982;4.664;2023-01-28T06:02:40;79000.72;;;-143.36;nan
39209;BME280;24929;51.982;4.664;2023-01-28T06:05:06;79006.75;;;-143.36;nan
39209;BME280;24929;51.982;4.664;2023-01-28T06:07:32;79028.84;;;-143.36;nan
39209;BME280;24929;51.982;4.664;2023-01-28T06:09:57;79016.78;;;-143.36;nan
39209;BME280;24929;51.982;4.664;2023-01-28T06:12:22;79040.88;;;-143.36;nan
39209;BME280;24929;51.982;4.664;2023-01-28T06:14:48;78998.72;;;-143.36;nan
39209;BME280;24929;51.982;4.664;2023-01-28T06:17:13;79002.75;;;-143.36;nan
39209;BME280;24929;51.982;4.664;2023-01-28T06:19:38;79036.88;;;-143.36;nan
39209;BME280;24929;51.982;4.664;2023-01-28T06:22:04;79095.09;;;-143.36;nan
39209;BME280;24929;51.982;4.664;2023-01-28T06:24:29;79006.75;;;-143.36;nan
39209;BME280;24929;51.982;4.664;2023-01-28T06:26:54;79018.81;;;-143.36;nan
39209;BME280;24929;51.982;4.664;2023-01-28T06:29:20;79024.81;;;-143.36;nan
39209;BME280;24929;51.982;4.664;2023-01-28T06:31:46;79014.78;;;-143.36;nan
39209;BME280;24929;51.982;4.664;2023-01-28T06:34:18;78976.63;;;-143.36;nan
39209;BME280;24929;51.982;4.664;2023-01-28T06:36:44;79193.50;;;-143.36;nan
39209;BME280;24929;51.982;4.664;2023-01-28T06:39:10;79087.06;;;-143.36;nan
39209;BME280;24929;51.982;4.664;2023-01-28T06:41:35;79079.03;;;-143.36;nan
39209;BME280;24929;51.982;4.664;2023-01-28T06:44:00;79089.09;;;-143.36;nan
39209;BME280;24929;51.982;4.664;2023-01-28T06:46:26;79075.03;;;-143.36;nan
39209;BME280;24929;51.982;4.664;2023-01-28T06:48:52;79129.25;;;-143.36;nan
39209;BME280;24929;51.982;4.664;2023-01-28T06:51:17;79159.38;;;-143.36;nan
39209;BME280;24929;51.982;4.664;2023-01-28T06:53:43;79123.22;;;-143.36;nan
39209;BME280;24929;51.982;4.664;2023-01-28T06:56:08;79026.84;;;-143.36;nan
39209;BME280;24929;51.982;4.664;2023-01-28T06:58:34;79034.88;;;-143.36;nan
39209;BME280;24929;51.982;4.664;2023-01-28T07:00:59;79006.75;;;-143.36;nan
39209;BME280;24929;51.982;4.664;2023-01-28T07:03:25;79014.78;;;-143.36;nan
39209;BME280;24929;51.982;4.664;2023-01-28T07:05:51;79038.88;;;-143.36;nan
39209;BME280;24929;51.982;4.664;2023-01-28T07:08:16;79073.03;;;-143.36;nan
39209;BME280;24929;51.982;4.664;2023-01-28T07:10:42;79046.91;;;-143.36;nan
39209;BME280;24929;51.982;4.664;2023-01-28T07:13:08;79022.81;;;-143.36;nan
39209;BME280;24929;51.982;4.664;2023-01-28T07:15:34;79073.03;;;-143.36;nan
39209;BME280;24929;51.982;4.664;2023-01-28T07:18:00;79060.97;;;-143.36;nan
39209;BME280;24929;51.982;4.664;2023-01-28T07:20:25;79018.81;;;-143.36;nan
39209;BME280;24929;51.982;4.664;2023-01-28T07:22:51;79044.91;;;-143.36;nan
39209;BME280;24929;51.982;4.664;2023-01-28T07:25:16;79042.91;;;-143.36;nan
39209;BME280;24929;51.982;4.664;2023-01-28T07:27:46;79012.78;;;-143.36;nan
39209;BME280;24929;51.982;4.664;2023-01-28T07:30:12;79054.94;;;-143.36;nan
39209;BME280;24929;51.982;4.664;2023-01-28T07:32:38;79044.91;;;-143.36;nan
39209;BME280;24929;51.982;4.664;2023-01-28T07:35:03;79040.88;;;-143.36;nan
39209;BME280;24929;51.982;4.664;2023-01-28T07:37:28;79044.91;;;-143.36;nan
39209;BME280;24929;51.982;4.664;2023-01-28T07:39:54;79081.06;;;-143.36;nan
39209;BME280;24929;51.982;4.664;2023-01-28T07:42:19;79091.09;;;-143.36;nan
39209;BME280;24929;51.982;4.664;2023-01-28T07:44:44;79207.56;;;-143.36;nan
39209;BME280;24929;51.982;4.664;2023-01-28T07:47:10;79131.25;;;-143.36;nan
39209;BME280;24929;51.982;4.664;2023-01-28T07:49:35;79135.25;;;-143.36;nan
39209;BME280;24929;51.982;4.664;2023-01-28T07:52:04;79075.03;;;-143.36;nan
39209;BME280;24929;51.982;4.664;2023-01-28T07:54:29;79135.25;;;-143.36;nan
39209;BME280;24929;51.982;4.664;2023-01-28T07:56:54;79113.19;;;-143.36;nan
39209;BME280;24929;51.982;4.664;2023-01-28T07:59:21;79077.03;;;-143.36;nan
39209;BME280;24929;51.982;4.664;2023-01-28T08:01:46;79113.19;;;-143.36;nan
39209;BME280;24929;51.982;4.664;2023-01-28T08:04:11;79147.31;;;-143.36;nan
39209;BME280;24929;51.982;4.664;2023-01-28T08:06:37;79161.38;;;-143.36;nan
39209;BME280;24929;51.982;4.664;2023-01-28T08:09:04;79111.16;;;-143.36;nan
39209;BME280;24929;51.982;4.664;2023-01-28T08:11:31;79107.16;;;-143.36;nan
39209;BME280;24929;51.982;4.664;2023-01-28T08:13:56;79149.31;;;-143.36;nan
39209;BME280;24929;51.982;4.664;2023-01-28T08:16:22;79091.09;;;-143.36;nan
39209;BME280;24929;51.982;4.664;2023-01-28T08:18:47;79038.88;;;-143.36;nan
39209;BME280;24929;51.982;4.664;2023-01-28T08:21:12;79026.84;;;-143.36;nan
39209;BME280;24929;51.982;4.664;2023-01-28T08:23:38;78982.66;;;-143.36;nan
39209;BME280;24929;51.982;4.664;2023-01-28T08:26:03;79004.75;;;-143.36;nan
39209;BME280;24929;51.982;4.664;2023-01-28T08:28:28;79091.09;;;-143.36;nan
39209;BME280;24929;51.982;4.664;2023-01-28T08:30:54;79123.22;;;-143.36;nan
39209;BME280;24929;51.982;4.664;2023-01-28T08:33:23;79085.06;;;-143.36;nan
39209;BME280;24929;51.982;4.664;2023-01-28T08:35:48;79103.13;;;-143.36;nan
39209;BME280;24929;51.982;4.664;2023-01-28T08:38:14;79060.97;;;-143.36;nan
39209;BME280;24929;51.982;4.664;2023-01-28T08:40:40;79149.31;;;-143.36;nan
39209;BME280;24929;51.982;4.664;2023-01-28T08:43:05;79135.25;;;-143.36;nan
39209;BME280;24929;51.982;4.664;2023-01-28T08:45:31;79087.06;;;-143.36;nan
39209;BME280;24929;51.982;4.664;2023-01-28T08:47:59;79081.06;;;-143.36;nan
39209;BME280;24929;51.982;4.664;2023-01-28T08:50:27;79067.00;;;-143.36;nan
39209;BME280;24929;51.982;4.664;2023-01-28T08:53:00;79087.06;;;-143.36;nan
39209;BME280;24929;51.982;4.664;2023-01-28T08:55:27;79153.34;;;-143.36;nan
39209;BME280;24929;51.982;4.664;2023-01-28T08:57:53;79179.44;;;-143.36;nan
39209;BME280;24929;51.982;4.664;2023-01-28T09:00:19;79141.28;;;-143.36;nan
39209;BME280;24929;51.982;4.664;2023-01-28T09:02:45;79201.53;;;-143.36;nan
39209;BME280;24929;51.982;4.664;2023-01-28T09:05:10;79149.31;;;-143.36;nan
39209;BME280;24929;51.982;4.664;2023-01-28T09:07:36;79143.28;;;-143.36;nan
39209;BME280;24929;51.982;4.664;2023-01-28T09:10:03;79103.13;;;-143.36;nan
39209;BME280;24929;51.982;4.664;2023-01-28T09:12:29;79161.38;;;-143.36;nan
39209;BME280;24929;51.982;4.664;2023-01-28T09:14:54;79133.25;;;-143.36;nan
39209;BME280;24929;51.982;4.664;2023-01-28T09:17:20;79095.09;;;-143.36;nan
39209;BME280;24929;51.982;4.664;2023-01-28T09:19:45;79191.50;;;-143.36;nan
39209;BME280;24929;51.982;4.664;2023-01-28T09:22:11;79109.16;;;-143.36;nan
39209;BME280;24929;51.982;4.664;2023-01-28T09:24:36;79099.13;;;-143.36;nan
39209;BME280;24929;51.982;4.664;2023-01-28T09:27:02;79125.22;;;-143.36;nan
39209;BME280;24929;51.982;4.664;2023-01-28T09:29:27;79103.13;;;-143.36;nan
39209;BME280;24929;51.982;4.664;2023-01-28T09:31:52;79117.19;;;-143.36;nan
39209;BME280;24929;51.982;4.664;2023-01-28T09:34:18;79026.84;;;-143.36;nan
39209;BME280;24929;51.982;4.664;2023-01-28T09:36:43;79014.78;;;-143.36;nan
39209;BME280;24929;51.982;4.664;2023-01-28T09:39:08;79022.81;;;-143.36;nan
39209;BME280;24929;51.982;4.664;2023-01-28T09:41:56;78984.66;;;-143.36;nan
39209;BME280;24929;51.982;4.664;2023-01-28T09:44:32;79115.19;;;-143.36;nan
39209;BME280;24929;51.982;4.664;2023-01-28T09:47:03;79060.97;;;-143.36;nan
39209;BME280;24929;51.982;4.664;2023-01-28T09:49:42;79004.75;;;-143.36;nan
39209;BME280;24929;51.982;4.664;2023-01-28T09:52:13;79040.88;;;-143.36;nan
39209;BME280;24929;51.982;4.664;2023-01-28T09:54:52;79000.72;;;-143.36;nan
39209;BME280;24929;51.982;4.664;2023-01-28T09:57:24;79006.75;;;-143.36;nan
39209;BME280;24929;51.982;4.664;2023-01-28T09:59:50;79058.97;;;-143.36;nan
39209;BME280;24929;51.982;4.664;2023-01-28T10:02:40;79010.78;;;-143.36;nan
39209;BME280;24929;51.982;4.664;2023-01-28T10:10:47;78992.69;;;-143.36;nan
39209;BME280;24929;51.982;4.664;2023-01-28T10:18:35;79046.91;;;-143.36;nan
39209;BME280;24929;51.982;4.664;2023-01-28T10:21:16;79069.00;;;-143.36;nan
39209;BME280;24929;51.982;4.664;2023-01-28T10:24:02;79046.91;;;-143.36;nan
39209;BME280;24929;51.982;4.664;2023-01-28T10:26:35;79028.84;;;-143.36;nan
39209;BME280;24929;51.982;4.664;2023-01-28T10:29:04;78932.47;;;-143.36;nan
39209;BME280;24929;51.982;4.664;2023-01-28T10:31:35;79010.78;;;-143.36;nan
39209;BME280;24929;51.982;4.664;2023-01-28T10:34:03;79089.09;;;-143.36;nan
39209;BME280;24929;51.982;4.664;2023-01-28T10:36:29;79077.03;;;-143.36;nan
39209;BME280;24929;51.982;4.664;2023-01-28T10:38:54;79081.06;;;-143.36;nan
39209;BME280;24929;51.982;4.664;2023-01-28T10:41:21;79000.72;;;-143.36;nan
39209;BME280;24929;51.982;4.664;2023-01-28T10:43:48;79024.81;;;-143.36;nan
39209;BME280;24929;51.982;4.664;2023-01-28T10:46:28;78940.50;;;-143.36;nan
39209;BME280;24929;51.982;4.664;2023-01-28T10:49:26;78842.09;;;-143.36;nan
39209;BME280;24929;51.982;4.664;2023-01-28T10:51:51;78964.59;;;-143.36;nan
39209;BME280;24929;51.982;4.664;2023-01-28T10:54:27;78906.34;;;-143.36;nan
39209;BME280;24929;51.982;4.664;2023-01-28T10:57:01;78872.22;;;-143.36;nan
39209;BME280;24929;51.982;4.664;2023-01-28T10:59:29;78964.59;;;-143.36;nan
39209;BME280;24929;51.982;4.664;2023-01-28T11:01:57;78902.34;;;-143.36;nan
39209;BME280;24929;51.982;4.664;2023-01-28T11:07:01;78868.22;;;-143.36;nan
39209;BME280;24929;51.982;4.664;2023-01-28T11:09:37;78892.31;;;-143.36;nan
39209;BME280;24929;51.982;4.664;2023-01-28T11:12:18;78886.28;;;-143.36;nan
39209;BME280;24929;51.982;4.664;2023-01-28T11:14:52;78872.22;;;-143.36;nan
39209;BME280;24929;51.982;4.664;2023-01-28T11:17:20;78880.25;;;-143.36;nan
39209;BME280;24929;51.982;4.664;2023-01-28T11:19:48;78900.34;;;-143.36;nan
39209;BME280;24929;51.982;4.664;2023-01-28T11:22:35;78771.84;;;-143.36;nan
39209;BME280;24929;51.982;4.664;2023-01-28T11:25:12;78729.66;;;-143.36;nan
39209;BME280;24929;51.982;4.664;2023-01-28T11:27:45;78751.75;;;-143.36;nan
39209;BME280;24929;51.982;4.664;2023-01-28T11:30:23;78745.72;;;-143.36;nan
39209;BME280;24929;51.982;4.664;2023-01-28T11:33:02;78733.69;;;-143.36;nan
39209;BME280;24929;51.982;4.664;2023-01-28T11:35:30;78751.75;;;-143.36;nan
39209;BME280;24929;51.982;4.664;2023-01-28T11:37:57;78733.69;;;-143.36;nan
39209;BME280;24929;51.982;4.664;2023-01-28T11:40:23;78779.84;;;-143.36;nan
39209;BME280;24929;51.982;4.664;2023-01-28T11:42:50;78743.72;;;-143.36;nan
39209;BME280;24929;51.982;4.664;2023-01-28T11:45:26;78707.56;;;-143.36;nan
39209;BME280;24929;51.982;4.664;2023-01-28T11:48:17;78683.47;;;-143.36;nan
39209;BME280;24929;51.982;4.664;2023-01-28T11:51:03;78667.41;;;-143.36;nan
39209;BME280;24929;51.982;4.664;2023-01-28T12:01:57;78705.56;;;-143.36;nan
39209;BME280;24929;51.982;4.664;2023-01-28T12:07:40;78687.50;;;-143.36;nan
39209;BME280;24929;51.982;4.664;2023-01-28T12:10:23;78657.38;;;-143.36;nan
39209;BME280;24929;51.982;4.664;2023-01-28T12:27:10;78585.09;;;-143.36;nan
39209;BME280;24929;51.982;4.664;2023-01-28T12:43:17;78530.91;;;-143.36;nan
39209;BME280;24929;51.982;4.664;2023-01-28T12:45:49;78561.00;;;-143.36;nan
39209;BME280;24929;51.982;4.664;2023-01-28T12:48:21;78498.78;;;-143.36;nan
39209;BME280;24929;51.982;4.664;2023-01-28T12:51:02;78508.81;;;-143.36;nan
39209;BME280;24929;51.982;4.664;2023-01-28T12:56:11;78476.69;;;-143.36;nan
39209;BME280;24929;51.982;4.664;2023-01-28T12:58:53;78442.56;;;-143.36;nan
39209;BME280;24929;51.982;4.664;2023-01-28T13:01:25;78402.41;;;-143.36;nan
39209;BME280;24929;51.982;4.664;2023-01-28T13:03:53;78468.66;;;-143.36;nan
39209;BME280;24929;51.982;4.664;2023-01-28T13:06:29;78392.38;;;-143.36;nan
39209;BME280;24929;51.982;4.664;2023-01-28T13:08:59;78402.41;;;-143.36;nan
39209;BME280;24929;51.982;4.664;2023-01-28T13:11:33;78432.50;;;-143.36;nan
39209;BME280;24929;51.982;4.664;2023-01-28T13:14:00;78557.00;;;-143.36;nan
39209;BME280;24929;51.982;4.664;2023-01-28T13:16:26;78508.81;;;-143.36;nan
39209;BME280;24929;51.982;4.664;2023-01-28T13:19:04;78488.72;;;-143.36;nan
39209;BME280;24929;51.982;4.664;2023-01-28T13:21:33;78476.69;;;-143.36;nan
39209;BME280;24929;51.982;4.664;2023-01-28T13:31:44;78472.66;;;-143.36;nan
39209;BME280;24929;51.982;4.664;2023-01-28T13:34:26;78452.59;;;-143.36;nan
39209;BME280;24929;51.982;4.664;2023-01-28T13:36:54;78462.63;;;-143.36;nan
39209;BME280;24929;51.982;4.664;2023-01-28T13:39:23;78424.50;;;-143.36;nan
39209;BME280;24929;51.982;4.664;2023-01-28T13:41:52;78452.59;;;-143.36;nan
39209;BME280;24929;51.982;4.664;2023-01-28T13:46:50;78454.59;;;-143.36;nan
39209;BME280;24929;51.982;4.664;2023-01-28T13:49:21;78392.38;;;-143.36;nan
39209;BME280;24929;51.982;4.664;2023-01-28T13:52:04;78430.50;;;-143.36;nan
39209;BME280;24929;51.982;4.664;2023-01-28T13:54:33;78366.25;;;-143.36;nan
39209;BME280;24929;51.982;4.664;2023-01-28T14:18:42;78342.19;;;-143.36;nan
39209;BME280;24929;51.982;4.664;2023-01-28T14:21:11;78344.19;;;-143.36;nan
39209;BME280;24929;51.982;4.664;2023-01-28T14:23:44;78364.25;;;-143.36;nan
39209;BME280;24929;51.982;4.664;2023-01-28T14:29:36;78390.34;;;-143.36;nan
39209;BME280;24929;51.982;4.664;2023-01-28T14:31:53;78408.44;;;-143.36;nan
39209;BME280;24929;51.982;4.664;2023-01-28T14:34:31;78283.94;;;-143.36;nan
39209;BME280;24929;51.982;4.664;2023-01-28T14:37:18;78320.09;;;-143.36;nan
39209;BME280;24929;51.982;4.664;2023-01-28T14:39:46;78408.44;;;-143.36;nan
39209;BME280;24929;51.982;4.664;2023-01-28T14:42:20;78332.13;;;-143.36;nan
39209;BME280;24929;51.982;4.664;2023-01-28T14:47:55;78344.19;;;-143.36;nan
39209;BME280;24929;51.982;4.664;2023-01-28T14:50:56;78326.13;;;-143.36;nan
39209;BME280;24929;51.982;4.664;2023-01-28T15:01:33;78366.25;;;-143.36;nan
39209;BME280;24929;51.982;4.664;2023-01-28T15:03:59;78364.25;;;-143.36;nan
39209;BME280;24929;51.982;4.664;2023-01-28T15:06:30;78312.06;;;-143.36;nan
39209;BME280;24929;51.982;4.664;2023-01-28T15:09:06;78310.06;;;-143.36;nan
39209;BME280;24929;51.982;4.664;2023-01-28T15:11:35;78332.13;;;-143.36;nan
39209;BME280;24929;51.982;4.664;2023-01-28T15:14:02;78416.47;;;-143.36;nan